createdAt,value
2018-02-23T15:53:51.385Z,35.25
2018-02-23T15:56:19.764Z,35.27
2018-02-23T15:58:48.143Z,36.04
2018-02-23T16:01:16.503Z,36.56
2018-02-23T16:03:44.883Z,36.18
2018-02-23T16:06:13.264Z,35.02
2018-02-23T16:08:41.626Z,34.14
2018-02-23T16:11:10.393Z,34.09
2018-02-23T16:13:38.776Z,34.14
2018-02-23T16:16:07.135Z,33.21
2018-02-23T16:18:35.533Z,34.90
2018-02-23T16:21:03.917Z,35.33
2018-02-23T16:23:32.289Z,33.92
2018-02-23T16:26:00.636Z,33.91
2018-02-23T16:28:29.011Z,32.73
2018-02-23T16:30:57.380Z,32.91
2018-02-23T16:33:25.777Z,31.76
2018-02-23T16:35:54.174Z,32.23
2018-02-23T16:38:22.553Z,32.04
2018-02-23T16:40:50.916Z,31.61
2018-02-23T16:43:19.290Z,31.58
2018-02-23T16:45:47.672Z,30.91
2018-02-23T16:48:16.050Z,30.97
2018-02-23T16:50:44.424Z,31.35
2018-02-23T16:53:12.791Z,30.40
2018-02-23T16:55:41.172Z,31.17
2018-02-23T16:58:09.539Z,31.19
2018-02-23T17:00:37.907Z,31.07
2018-02-23T17:03:06.295Z,31.77
2018-02-23T17:05:34.672Z,32.16
2018-02-23T17:08:03.058Z,32.11
2018-02-23T17:10:31.418Z,31.67
2018-02-23T17:12:59.844Z,31.57
2018-02-23T17:15:28.222Z,31.49
2018-02-23T17:17:56.596Z,32.73
2018-02-23T17:20:24.991Z,32.55
2018-02-23T17:22:53.563Z,32.88
2018-02-23T17:25:21.927Z,32.82
2018-02-23T17:27:50.299Z,32.94
2018-02-23T17:30:18.669Z,32.77
2018-02-23T17:32:47.084Z,34.22
2018-02-23T17:35:15.466Z,34.28
2018-02-23T17:37:43.847Z,34.65
2018-02-23T17:40:12.224Z,35.16
2018-02-23T17:42:40.580Z,34.93
2018-02-23T17:45:08.965Z,34.95
2018-02-23T17:47:37.373Z,34.88
2018-02-23T17:50:05.745Z,35.38
2018-02-23T17:52:34.100Z,36.07
2018-02-23T17:55:02.480Z,36.25
2018-02-23T17:57:30.851Z,35.14
2018-02-23T17:59:59.240Z,34.88
2018-02-23T18:02:27.616Z,35.44
2018-02-23T18:04:55.995Z,35.88
2018-02-23T18:07:24.412Z,35.69
2018-02-23T18:09:52.779Z,35.75
2018-02-23T18:12:21.139Z,35.53
2018-02-23T18:14:49.493Z,35.90
2018-02-23T18:17:18.010Z,35.43
2018-02-23T18:19:46.385Z,35.95
2018-02-23T18:22:14.832Z,35.83
2018-02-23T18:24:43.200Z,35.76
2018-02-23T18:27:11.584Z,35.95
2018-02-23T18:29:39.969Z,35.26
2018-02-23T18:32:08.332Z,35.89
2018-02-23T18:34:36.736Z,35.61
2018-02-23T18:37:05.137Z,35.23
2018-02-23T18:39:33.515Z,34.78
2018-02-23T18:42:01.888Z,34.99
2018-02-23T18:44:30.313Z,35.21
2018-02-23T18:46:59.089Z,34.80
2018-02-23T18:49:27.873Z,34.75
2018-02-23T18:51:56.640Z,34.17
2018-02-23T18:54:25.039Z,34.64
2018-02-23T18:56:53.391Z,34.59
2018-02-23T18:59:21.770Z,34.27
2018-02-23T19:01:50.149Z,34.01
2018-02-23T19:04:18.512Z,35.00
2018-02-23T19:06:46.892Z,34.29
2018-02-23T19:09:15.268Z,34.04
2018-02-23T19:11:43.650Z,34.37
2018-02-23T19:14:12.019Z,34.54
2018-02-23T19:16:40.378Z,35.37
2018-02-23T19:19:08.748Z,35.15
2018-02-23T19:21:37.123Z,34.56
2018-02-23T19:24:05.903Z,34.64
2018-02-23T19:26:34.661Z,35.15
2018-02-23T19:29:03.039Z,35.37
2018-02-23T19:31:31.412Z,36.32
2018-02-23T19:33:59.820Z,36.15
2018-02-23T19:36:28.177Z,36.42
2018-02-23T19:38:56.551Z,35.69
2018-02-23T19:41:24.912Z,35.46
2018-02-23T19:43:53.289Z,35.93
2018-02-23T19:46:21.670Z,36.07
2018-02-23T19:48:50.044Z,36.27
2018-02-23T19:51:18.424Z,35.91
2018-02-23T19:53:46.805Z,36.10
2018-02-23T19:56:15.172Z,36.06
2018-02-23T19:58:43.561Z,36.32
2018-02-23T20:01:11.941Z,35.96
2018-02-23T20:03:40.362Z,35.86
2018-02-23T20:06:08.717Z,35.66
2018-02-23T20:08:37.089Z,35.59
2018-02-23T20:11:05.446Z,35.26
2018-02-23T20:13:33.816Z,35.02
2018-02-23T20:16:02.198Z,35.48
2018-02-23T20:18:30.680Z,35.92
2018-02-23T20:20:59.068Z,35.66
2018-02-23T20:23:27.582Z,35.07
2018-02-23T20:25:55.961Z,35.01
2018-02-23T20:28:24.447Z,35.32
2018-02-23T20:30:52.817Z,36.30
2018-02-23T20:33:21.222Z,35.97
2018-02-23T20:35:50.306Z,36.82
2018-02-23T20:38:18.935Z,35.99
2018-02-23T20:40:47.305Z,36.00
2018-02-23T20:43:15.690Z,36.08
2018-02-23T20:45:44.069Z,36.18
2018-02-23T20:48:12.529Z,36.57
2018-02-23T20:50:41.316Z,36.85
2018-02-23T20:53:09.724Z,37.62
2018-02-23T20:55:38.174Z,37.86
2018-02-23T20:58:06.952Z,37.15
2018-02-23T21:00:35.755Z,37.04
2018-02-23T21:03:04.123Z,37.66
2018-02-23T21:05:32.924Z,36.72
2018-02-23T21:08:01.892Z,37.81
2018-02-23T21:10:30.326Z,37.71
2018-02-23T21:12:58.697Z,38.23
2018-02-23T21:15:27.084Z,38.61
2018-02-23T21:17:55.516Z,38.49
2018-02-23T21:20:24.084Z,38.87
2018-02-23T21:22:52.443Z,38.25
2018-02-23T21:25:20.813Z,38.20
2018-02-23T21:27:49.239Z,38.56
2018-02-23T21:30:17.604Z,38.37
2018-02-23T21:32:45.998Z,38.01
2018-02-23T21:35:14.655Z,38.32
2018-02-23T21:37:43.027Z,38.42
2018-02-23T21:40:11.400Z,38.77
2018-02-23T21:42:39.934Z,38.15
2018-02-23T21:45:08.697Z,38.52
2018-02-23T21:47:37.137Z,38.59
2018-02-23T21:50:06.084Z,38.95
2018-02-23T21:52:34.561Z,38.88
2018-02-23T21:55:02.946Z,38.83
2018-02-23T21:57:31.359Z,39.31
2018-02-23T21:59:59.763Z,38.91
2018-02-23T22:02:28.409Z,39.75
2018-02-23T22:04:56.780Z,40.06
2018-02-23T22:07:25.558Z,39.38
2018-02-23T22:09:53.927Z,39.51
2018-02-23T22:12:22.296Z,39.71
2018-02-23T22:14:50.672Z,39.02
2018-02-23T22:17:19.092Z,38.83
2018-02-23T22:19:47.477Z,39.19
2018-02-23T22:22:15.843Z,39.64
2018-02-23T22:24:44.256Z,39.41
2018-02-23T22:27:12.624Z,40.43
2018-02-23T22:29:41.020Z,40.05
2018-02-23T22:32:09.377Z,40.61
2018-02-23T22:34:37.755Z,40.75
2018-02-23T22:37:06.133Z,42.50
2018-02-23T22:39:34.532Z,43.27
2018-02-23T22:42:02.950Z,43.37
2018-02-23T22:44:31.330Z,43.38
2018-02-23T22:47:00.114Z,44.69
2018-02-23T22:49:28.588Z,45.27
2018-02-23T22:51:56.982Z,46.94
2018-02-23T22:54:25.416Z,48.25
2018-02-23T22:56:53.769Z,47.96
2018-02-23T22:59:22.147Z,48.97
2018-02-23T23:01:50.520Z,47.75
2018-02-23T23:04:19.301Z,47.29
2018-02-23T23:06:48.073Z,47.22
2018-02-23T23:09:16.444Z,46.92
2018-02-23T23:11:44.828Z,47.75
2018-02-23T23:14:13.204Z,47.09
2018-02-23T23:16:41.561Z,47.24
2018-02-23T23:19:09.965Z,47.82
2018-02-23T23:21:38.332Z,48.42
2018-02-23T23:24:06.704Z,48.08
2018-02-23T23:26:35.926Z,48.34
2018-02-23T23:29:04.333Z,47.79
2018-02-23T23:31:32.705Z,47.34
2018-02-23T23:34:01.480Z,48.76
2018-02-23T23:36:30.264Z,48.23
2018-02-23T23:38:58.655Z,49.26
2018-02-23T23:41:28.260Z,49.19
2018-02-23T23:43:57.045Z,48.86
2018-02-23T23:46:25.436Z,49.27
2018-02-23T23:48:53.804Z,49.91
2018-02-23T23:51:22.566Z,49.24
2018-02-23T23:53:50.958Z,47.78
2018-02-23T23:56:19.324Z,48.30
2018-02-23T23:58:47.703Z,48.39
